Time;durP1;ratioP1;P1;durP2;ratioP2;P2;SDS_P1;SDS_P2;PMS_P1;PMS_P2;Temp;Humidity;BMP_temperature;BMP_pressure;BME280_temperature;BME280_humidity;BME280_pressure;Samples;Min_cycle;Max_cycle;Signal;HPM_P1;HPM_P2
2022/09/06 00:02:03;;;;;;;5.33;4.10;;;21.70;99.90;;;;;;5074272;28;20551;-56
2022/09/06 00:04:30;;;;;;;4.27;3.87;;;21.80;99.90;;;;;;5074267;28;20566;-56
2022/09/06 00:06:57;;;;;;;4.60;4.10;;;21.90;99.90;;;;;;5073772;28;20805;-57
2022/09/06 00:09:24;;;;;;;4.83;4.43;;;21.70;99.90;;;;;;5074388;28;20455;-56
2022/09/06 00:11:51;;;;;;;4.63;4.23;;;21.60;99.90;;;;;;5074226;28;20514;-56
2022/09/06 00:14:19;;;;;;;4.70;3.33;;;21.60;99.90;;;;;;5073677;28;20949;-56
2022/09/06 00:16:46;;;;;;;4.80;4.40;;;21.30;99.90;;;;;;5073279;28;20474;-57
2022/09/06 00:19:19;;;;;;;6.13;4.47;;;21.30;99.90;;;;;;5074041;28;20539;-56
2022/09/06 00:21:46;;;;;;;5.10;4.03;;;21.10;99.90;;;;;;5074003;28;20472;-56
2022/09/06 00:24:14;;;;;;;4.37;3.97;;;20.90;99.90;;;;;;5073550;28;20575;-57
2022/09/06 00:26:41;;;;;;;5.10;4.60;;;20.80;99.90;;;;;;5074060;28;20851;-57
2022/09/06 00:29:08;;;;;;;5.50;5.00;;;20.70;99.90;;;;;;5073921;28;20473;-56
2022/09/06 00:31:35;;;;;;;4.83;4.33;;;20.70;99.90;;;;;;5073881;28;20482;-57
2022/09/06 00:34:03;;;;;;;4.23;3.83;;;20.70;99.90;;;;;;5073498;28;20446;-56
2022/09/06 00:36:31;;;;;;;5.10;4.60;;;20.70;99.90;;;;;;5073778;28;20444;-56
2022/09/06 00:38:59;;;;;;;6.10;3.90;;;20.60;99.90;;;;;;5073430;28;20931;-56
2022/09/06 00:41:26;;;;;;;4.70;4.30;;;20.60;99.90;;;;;;5073606;28;20452;-56
2022/09/06 00:43:53;;;;;;;5.50;5.00;;;20.50;99.90;;;;;;5073314;28;20995;-57
2022/09/06 00:46:24;;;;;;;5.10;4.60;;;20.50;99.90;;;;;;5073661;28;20459;-57
2022/09/06 00:48:56;;;;;;;7.23;4.77;;;20.50;99.90;;;;;;5073042;28;21053;-56
2022/09/06 00:51:26;;;;;;;4.47;3.93;;;20.60;99.90;;;;;;5073238;28;20460;-57
2022/09/06 00:53:55;;;;;;;4.60;4.17;;;20.70;99.90;;;;;;5073168;28;20957;-56
2022/09/06 00:56:24;;;;;;;4.30;4.00;;;20.80;99.90;;;;;;5073282;28;20448;-56
2022/09/06 00:58:51;;;;;;;6.10;4.40;;;20.60;99.90;;;;;;5073382;28;20457;-57
2022/09/06 01:01:18;;;;;;;5.10;4.60;;;20.70;99.90;;;;;;5073277;28;20468;-56
2022/09/06 01:03:45;;;;;;;6.00;4.10;;;20.90;99.90;;;;;;5073280;28;20480;-57
2022/09/06 01:06:23;;;;;;;4.80;4.30;;;21.10;99.90;;;;;;5073415;28;20448;-57
2022/09/06 01:09:04;;;;;;;5.10;4.60;;;20.90;99.90;;;;;;5073281;28;20845;-57
2022/09/06 01:11:48;;;;;;;5.80;4.60;;;20.70;99.90;;;;;;5073038;28;20476;-57
2022/09/06 01:14:24;;;;;;;4.47;4.07;;;20.90;99.90;;;;;;5073071;28;20432;-56
2022/09/06 01:17:00;;;;;;;5.53;4.40;;;20.80;99.90;;;;;;5073212;28;20464;-56
2022/09/06 01:20:10;;;;;;;4.80;4.40;;;20.60;99.90;;;;;;5072917;28;20428;-56
2022/09/06 01:23:00;;;;;;;6.00;4.10;;;20.80;99.90;;;;;;5042219;28;20507;-56
2022/09/06 01:25:48;;;;;;;5.20;4.70;;;20.90;99.90;;;;;;5073231;28;20443;-56
2022/09/06 01:28:28;;;;;;;5.67;5.13;;;20.90;99.90;;;;;;5075911;28;20860;-57
2022/09/06 01:31:06;;;;;;;4.63;4.20;;;20.80;99.90;;;;;;5077244;28;20513;-57
2022/09/06 01:33:38;;;;;;;4.93;4.37;;;20.70;99.90;;;;;;5076807;28;20876;-56
2022/09/06 01:36:09;;;;;;;5.43;4.87;;;20.90;99.90;;;;;;5077059;28;20456;-57
2022/09/06 01:38:37;;;;;;;5.60;4.47;;;20.90;99.90;;;;;;5076938;28;20550;-56
2022/09/06 01:41:04;;;;;;;5.17;4.77;;;20.80;99.90;;;;;;5076794;28;20499;-56
2022/09/06 01:43:36;;;;;;;6.63;4.67;;;20.70;99.90;;;;;;5076800;28;20575;-56
2022/09/06 01:46:13;;;;;;;5.40;4.90;;;21.20;99.90;;;;;;5076587;28;20917;-57
2022/09/06 01:48:57;;;;;;;5.00;4.10;;;21.10;99.90;;;;;;5076493;28;20468;-56
2022/09/06 01:51:31;;;;;;;4.90;4.50;;;21.30;99.90;;;;;;5076696;28;20567;-56
2022/09/06 01:54:16;;;;;;;4.83;4.40;;;21.30;99.90;;;;;;5077105;28;20515;-56
2022/09/06 01:56:57;;;;;;;5.63;4.53;;;21.40;99.90;;;;;;5076628;28;20523;-57
2022/09/06 01:59:40;;;;;;;5.87;4.10;;;21.20;99.90;;;;;;5076493;28;20515;-56
2022/09/06 02:02:12;;;;;;;5.20;4.77;;;20.90;99.90;;;;;;5076324;28;20472;-57
2022/09/06 02:04:44;;;;;;;5.70;5.20;;;20.70;99.90;;;;;;5076102;28;21004;-57
2022/09/06 02:07:18;;;;;;;5.20;4.70;;;20.80;99.90;;;;;;5076456;28;20475;-56
2022/09/06 02:09:48;;;;;;;5.87;5.10;;;20.60;99.90;;;;;;5075996;28;20884;-57
2022/09/06 02:12:18;;;;;;;6.50;5.47;;;20.70;99.90;;;;;;5076070;28;20476;-56
2022/09/06 02:14:52;;;;;;;7.30;4.77;;;20.60;99.90;;;;;;5076579;28;20780;-56
2022/09/06 02:17:23;;;;;;;6.57;5.17;;;20.50;99.90;;;;;;5075925;28;20523;-56
2022/09/06 02:19:54;;;;;;;9.03;4.70;;;20.80;99.90;;;;;;5076191;28;20428;-56
2022/09/06 02:22:25;;;;;;;4.97;4.53;;;20.70;99.90;;;;;;5076145;28;20524;-58
2022/09/06 02:24:55;;;;;;;4.50;4.10;;;20.70;99.90;;;;;;5075750;28;20819;-57
2022/09/06 02:27:22;;;;;;;4.53;4.00;;;20.90;99.90;;;;;;5076077;28;20545;-56
2022/09/06 02:29:51;;;;;;;4.13;3.80;;;21.10;99.90;;;;;;5076187;28;20809;-57
2022/09/06 02:32:21;;;;;;;4.43;4.10;;;21.30;99.90;;;;;;5075712;28;20463;-57
2022/09/06 02:34:48;;;;;;;4.10;3.80;;;21.50;99.90;;;;;;5075981;28;20484;-57
2022/09/06 02:37:17;;;;;;;4.67;4.03;;;21.70;99.90;;;;;;5075902;28;20483;-56
2022/09/06 02:39:44;;;;;;;5.17;4.43;;;21.90;99.90;;;;;;5074485;28;20923;-57
2022/09/06 02:42:14;;;;;;;8.63;4.03;;;21.90;99.90;;;;;;5075529;28;20480;-56
2022/09/06 02:44:41;;;;;;;4.87;4.47;;;21.80;99.90;;;;;;5075851;28;20484;-56
2022/09/06 02:47:10;;;;;;;5.37;4.97;;;21.80;99.90;;;;;;5075497;28;20795;-56
2022/09/06 02:49:37;;;;;;;6.83;4.43;;;21.80;99.90;;;;;;5075220;28;20479;-57
2022/09/06 02:52:05;;;;;;;4.83;4.33;;;21.70;99.90;;;;;;5075287;28;21048;-57
2022/09/06 02:54:32;;;;;;;6.37;5.77;;;21.90;99.90;;;;;;5075374;28;20436;-57
2022/09/06 02:56:59;;;;;;;17.73;8.30;;;22.10;99.90;;;;;;5075514;28;20801;-57
2022/09/06 02:59:26;;;;;;;11.20;6.30;;;21.60;99.90;;;;;;5075200;28;20449;-56
2022/09/06 03:01:54;;;;;;;11.13;6.47;;;21.10;99.90;;;;;;5075458;28;20480;-57
2022/09/06 03:04:22;;;;;;;10.17;6.83;;;20.60;99.90;;;;;;5075271;28;20503;-56
2022/09/06 03:06:49;;;;;;;7.67;5.93;;;20.40;99.90;;;;;;5075049;28;20428;-56
2022/09/06 03:09:16;;;;;;;6.37;5.77;;;20.40;99.90;;;;;;5075220;28;20494;-57
2022/09/06 03:11:44;;;;;;;6.40;5.80;;;20.50;99.90;;;;;;5075427;28;20523;-56
2022/09/06 03:14:11;;;;;;;6.13;5.63;;;20.70;99.90;;;;;;5074876;28;20440;-56
2022/09/06 03:16:38;;;;;;;6.57;5.97;;;20.50;99.90;;;;;;5075101;28;20440;-56
2022/09/06 03:19:05;;;;;;;6.00;5.40;;;20.60;99.90;;;;;;5075233;28;20864;-57
2022/09/06 03:21:34;;;;;;;9.77;7.50;;;20.60;99.90;;;;;;5074631;28;20997;-57
2022/09/06 03:24:01;;;;;;;9.30;6.00;;;20.40;99.90;;;;;;5074666;28;20472;-57
2022/09/06 03:26:29;;;;;;;6.73;5.23;;;20.90;99.90;;;;;;5075046;28;20547;-56
2022/09/06 03:28:56;;;;;;;8.03;5.87;;;20.50;99.90;;;;;;5074912;28;20525;-57
2022/09/06 03:31:23;;;;;;;7.90;5.70;;;20.60;99.90;;;;;;5074471;28;21009;-57
2022/09/06 03:33:51;;;;;;;7.60;6.60;;;20.60;99.90;;;;;;5074628;28;20445;-56
2022/09/06 03:36:18;;;;;;;10.33;6.80;;;20.10;99.90;;;;;;5074483;28;20453;-56
2022/09/06 03:38:46;;;;;;;6.90;6.27;;;19.80;99.90;;;;;;5074661;28;20451;-56
2022/09/06 03:41:14;;;;;;;8.77;6.93;;;19.70;99.90;;;;;;5074323;28;20472;-56
2022/09/06 03:43:41;;;;;;;6.70;6.10;;;19.60;99.90;;;;;;5074214;28;20480;-56
2022/09/06 03:46:08;;;;;;;7.23;6.07;;;19.90;99.90;;;;;;5074281;28;20445;-56
2022/09/06 03:48:35;;;;;;;7.17;6.43;;;19.90;99.90;;;;;;5074305;28;20480;-56
2022/09/06 03:51:02;;;;;;;7.80;7.03;;;19.60;99.90;;;;;;5074177;28;20817;-57
2022/09/06 03:53:30;;;;;;;6.80;6.00;;;19.50;99.90;;;;;;5074344;28;20444;-56
2022/09/06 03:55:58;;;;;;;6.40;5.90;;;19.60;99.90;;;;;;5074193;28;20440;-56
2022/09/06 03:58:29;;;;;;;7.90;6.30;;;19.70;99.90;;;;;;5074001;28;20539;-57
2022/09/06 04:01:03;;;;;;;8.63;5.93;;;19.90;99.90;;;;;;5074188;28;20464;-56
2022/09/06 04:03:30;;;;;;;6.33;5.73;;;20.00;99.90;;;;;;5074164;28;20437;-56
2022/09/06 04:05:58;;;;;;;6.57;5.83;;;20.00;99.90;;;;;;5074002;28;20445;-57
2022/09/06 04:08:25;;;;;;;6.63;6.10;;;20.10;99.90;;;;;;5073866;28;20435;-57
2022/09/06 04:10:54;;;;;;;5.73;5.23;;;20.00;99.90;;;;;;5073826;28;20490;-56
2022/09/06 04:13:23;;;;;;;7.77;6.67;;;19.80;99.90;;;;;;5073897;28;20919;-56
2022/09/06 04:15:51;;;;;;;7.00;6.30;;;19.80;99.90;;;;;;5073677;28;20926;-57
2022/09/06 04:18:18;;;;;;;7.70;6.97;;;19.70;99.90;;;;;;5073634;28;20478;-56
2022/09/06 04:20:47;;;;;;;7.00;6.00;;;19.60;99.90;;;;;;5074126;28;20559;-56
2022/09/06 04:23:15;;;;;;;7.20;6.40;;;19.60;99.90;;;;;;5073969;28;20531;-56
2022/09/06 04:25:46;;;;;;;7.03;6.33;;;19.70;99.90;;;;;;5073716;28;20495;-57
2022/09/06 04:28:13;;;;;;;13.80;6.87;;;19.60;99.90;;;;;;5073806;28;20511;-56
2022/09/06 04:30:42;;;;;;;6.97;6.20;;;19.40;99.90;;;;;;5073746;28;20524;-57
2022/09/06 04:33:09;;;;;;;8.50;6.60;;;19.30;99.90;;;;;;5073381;28;20444;-57
2022/09/06 04:35:36;;;;;;;7.03;6.10;;;19.20;99.90;;;;;;5073685;28;20531;-57
2022/09/06 04:38:06;;;;;;;7.47;6.80;;;19.50;99.90;;;;;;5073388;28;20449;-56
2022/09/06 04:40:33;;;;;;;7.57;6.87;;;19.80;99.90;;;;;;5073074;28;20448;-56
2022/09/06 04:43:00;;;;;;;12.40;6.50;;;19.60;99.90;;;;;;5073374;28;20436;-56
2022/09/06 04:45:27;;;;;;;8.43;6.70;;;19.40;99.90;;;;;;5073275;28;20480;-56
2022/09/06 04:47:55;;;;;;;8.03;6.33;;;19.50;99.90;;;;;;5071848;28;20579;-56
2022/09/06 04:50:23;;;;;;;8.60;7.47;;;19.50;99.90;;;;;;5073106;28;20428;-56
2022/09/06 04:52:50;;;;;;;8.40;7.60;;;19.60;99.90;;;;;;5073556;28;20535;-56
2022/09/06 04:55:17;;;;;;;8.97;7.63;;;19.70;99.90;;;;;;5073102;28;21026;-57
2022/09/06 04:57:44;;;;;;;8.43;7.13;;;19.50;99.90;;;;;;5073280;28;20474;-57
2022/09/06 05:00:12;;;;;;;11.70;7.27;;;19.50;99.90;;;;;;5073418;28;20876;-57
2022/09/06 05:02:39;;;;;;;10.37;8.10;;;19.50;99.90;;;;;;5072758;28;20468;-56
2022/09/06 05:05:09;;;;;;;7.87;7.07;;;19.60;99.90;;;;;;5072910;28;20480;-56
2022/09/06 05:07:36;;;;;;;7.57;6.87;;;19.60;99.90;;;;;;5072725;28;20543;-56
2022/09/06 05:10:04;;;;;;;7.47;6.80;;;19.60;99.90;;;;;;5072947;28;20814;-57
2022/09/06 05:12:31;;;;;;;8.50;6.73;;;19.70;99.90;;;;;;5073278;28;20895;-56
2022/09/06 05:14:58;;;;;;;8.47;7.47;;;19.80;99.90;;;;;;5072785;28;20531;-57
2022/09/06 05:17:25;;;;;;;8.23;7.43;;;19.70;99.90;;;;;;5073307;28;20468;-56
2022/09/06 05:19:52;;;;;;;8.73;7.23;;;19.50;99.90;;;;;;5072794;28;20448;-57
2022/09/06 05:22:21;;;;;;;9.70;7.67;;;19.70;99.90;;;;;;5072765;28;20955;-56
2022/09/06 05:24:48;;;;;;;8.23;6.80;;;19.90;99.90;;;;;;5072966;28;20586;-56
2022/09/06 05:27:15;;;;;;;8.60;7.80;;;20.00;99.90;;;;;;5072712;28;20448;-56
2022/09/06 05:29:42;;;;;;;7.93;7.13;;;19.80;99.90;;;;;;5072870;28;20476;-56
2022/09/06 05:32:10;;;;;;;5.73;5.23;;;19.70;99.90;;;;;;5072953;28;20464;-57
2022/09/06 05:34:37;;;;;;;8.40;7.60;;;19.70;99.90;;;;;;5072810;28;20444;-56
2022/09/06 05:37:04;;;;;;;8.63;7.83;;;19.60;99.90;;;;;;5072477;28;20540;-57
2022/09/06 05:39:33;;;;;;;14.03;8.77;;;19.70;99.90;;;;;;5073084;28;20531;-56
2022/09/06 05:42:05;;;;;;;13.50;7.77;;;19.70;99.90;;;;;;5072781;28;20483;-57
2022/09/06 05:44:32;;;;;;;7.03;6.33;;;19.90;99.90;;;;;;5072612;28;20628;-56
2022/09/06 05:47:00;;;;;;;8.93;6.63;;;19.80;99.90;;;;;;5072501;28;20446;-56
2022/09/06 05:49:29;;;;;;;8.57;7.03;;;19.90;99.90;;;;;;5072385;28;20472;-57
2022/09/06 05:51:57;;;;;;;8.93;8.13;;;19.70;99.90;;;;;;5072467;28;20537;-56
2022/09/06 05:54:25;;;;;;;9.10;8.30;;;19.50;99.90;;;;;;5072171;28;20470;-56
2022/09/06 05:56:53;;;;;;;9.57;7.70;;;19.60;99.90;;;;;;5072914;28;20448;-57
2022/09/06 05:59:20;;;;;;;8.70;7.80;;;19.70;99.90;;;;;;5072785;28;20449;-57
2022/09/06 06:01:49;;;;;;;7.90;6.33;;;19.60;99.90;;;;;;5072296;28;20476;-57
2022/09/06 06:04:17;;;;;;;8.33;7.57;;;19.70;99.90;;;;;;5072456;28;20444;-57
2022/09/06 06:06:45;;;;;;;11.50;7.53;;;19.70;99.90;;;;;;5072760;28;20444;-57
2022/09/06 06:09:12;;;;;;;7.97;7.07;;;19.70;99.90;;;;;;5072691;28;20467;-57
2022/09/06 06:11:40;;;;;;;8.67;7.87;;;19.80;99.90;;;;;;5072226;28;20575;-57
2022/09/06 06:14:09;;;;;;;9.53;8.63;;;19.70;99.90;;;;;;5074629;28;20505;-57
2022/09/06 06:16:37;;;;;;;10.73;9.63;;;19.80;99.90;;;;;;5076168;28;20479;-57
2022/09/06 06:19:04;;;;;;;7.93;7.00;;;19.70;99.90;;;;;;5075730;28;20448;-57
2022/09/06 06:21:33;;;;;;;8.50;7.70;;;19.80;99.90;;;;;;5075309;28;21030;-56
2022/09/06 06:24:02;;;;;;;13.07;8.97;;;19.80;99.90;;;;;;5075944;28;20551;-56
2022/09/06 06:26:31;;;;;;;10.60;6.83;;;20.00;99.90;;;;;;5076032;28;20486;-57
2022/09/06 06:29:00;;;;;;;11.07;6.80;;;20.10;99.90;;;;;;5076204;28;20452;-57
2022/09/06 06:31:30;;;;;;;10.50;7.33;;;20.10;99.90;;;;;;5075636;28;20551;-57
2022/09/06 06:33:57;;;;;;;8.33;7.07;;;20.00;99.90;;;;;;5075268;28;20525;-58
2022/09/06 06:36:25;;;;;;;8.80;7.10;;;20.20;99.90;;;;;;5075842;28;20468;-57
2022/09/06 06:38:55;;;;;;;9.10;7.27;;;20.30;99.90;;;;;;5075384;28;20452;-56
2022/09/06 06:41:24;;;;;;;8.27;7.07;;;20.40;99.90;;;;;;5075398;28;20896;-57
2022/09/06 06:43:53;;;;;;;14.53;7.73;;;20.40;99.90;;;;;;5075421;28;20527;-56
2022/09/06 06:46:21;;;;;;;9.23;7.00;;;20.40;99.90;;;;;;5075657;28;20534;-57
2022/09/06 06:48:49;;;;;;;7.87;6.83;;;20.40;99.90;;;;;;5075103;28;20486;-56
2022/09/06 06:51:19;;;;;;;8.37;6.43;;;20.40;99.90;;;;;;5075504;28;20472;-56
2022/09/06 06:53:47;;;;;;;7.83;5.90;;;20.50;99.90;;;;;;5075063;28;20433;-57
2022/09/06 06:56:16;;;;;;;6.80;6.20;;;20.50;99.90;;;;;;5075116;28;20931;-56
2022/09/06 06:58:44;;;;;;;6.90;6.20;;;20.60;99.90;;;;;;5074968;28;20880;-57
2022/09/06 07:01:12;;;;;;;12.83;7.47;;;20.80;99.90;;;;;;5074908;28;20505;-57
2022/09/06 07:03:40;;;;;;;6.30;5.70;;;21.00;99.90;;;;;;5075115;28;20440;-56
2022/09/06 07:06:09;;;;;;;6.73;6.13;;;21.10;99.90;;;;;;5074903;28;20669;-56
2022/09/06 07:08:37;;;;;;;6.60;5.43;;;21.10;99.90;;;;;;5074828;28;20997;-57
2022/09/06 07:11:05;;;;;;;5.67;5.17;;;21.30;99.90;;;;;;5075111;28;20480;-57
2022/09/06 07:13:33;;;;;;;7.70;5.73;;;21.40;99.90;;;;;;5075040;28;20857;-56
2022/09/06 07:16:11;;;;;;;9.63;6.10;;;21.20;99.90;;;;;;5074912;28;20493;-57
2022/09/06 07:18:41;;;;;;;6.30;5.60;;;21.20;99.90;;;;;;5074779;28;20523;-57
2022/09/06 07:21:12;;;;;;;6.27;5.67;;;21.40;99.90;;;;;;5074911;28;20547;-56
2022/09/06 07:23:39;;;;;;;9.60;5.90;;;21.20;99.90;;;;;;5074631;28;20432;-57
2022/09/06 07:26:07;;;;;;;6.80;5.80;;;21.10;99.90;;;;;;5073657;28;20484;-57
2022/09/06 07:28:34;;;;;;;7.70;5.40;;;21.30;99.90;;;;;;5074819;28;20531;-57
2022/09/06 07:31:01;;;;;;;6.40;5.80;;;21.40;99.90;;;;;;5074691;28;20464;-57
2022/09/06 07:33:29;;;;;;;6.27;5.67;;;21.50;99.90;;;;;;5074601;28;20502;-57
2022/09/06 07:36:03;;;;;;;6.73;5.70;;;21.60;99.90;;;;;;5074388;28;20532;-57
2022/09/06 07:38:33;;;;;;;6.23;5.63;;;21.60;99.90;;;;;;5074833;28;20776;-57
2022/09/06 07:41:01;;;;;;;8.93;5.70;;;21.50;99.90;;;;;;5073949;28;20504;-57
2022/09/06 07:43:30;;;;;;;5.57;5.07;;;21.70;99.90;;;;;;5073910;28;20444;-57
2022/09/06 07:46:03;;;;;;;5.10;4.60;;;21.90;99.90;;;;;;5073843;28;20483;-57
2022/09/06 07:48:32;;;;;;;5.40;4.70;;;22.20;99.90;;;;;;5073806;28;21028;-57
2022/09/06 07:51:07;;;;;;;6.70;5.73;;;22.30;99.90;;;;;;5073855;28;20471;-57
2022/09/06 07:53:38;;;;;;;6.63;5.27;;;22.10;99.90;;;;;;5073749;28;20443;-57
2022/09/06 07:56:07;;;;;;;7.07;5.27;;;22.10;99.90;;;;;;5074056;28;20841;-57
2022/09/06 07:58:34;;;;;;;6.37;5.83;;;22.00;99.90;;;;;;5073957;28;20488;-58
2022/09/06 08:01:26;;;;;;;4.97;4.50;;;22.00;99.90;;;;;;5073914;28;20551;-58
2022/09/06 08:03:54;;;;;;;5.60;5.10;;;22.00;99.90;;;;;;5073699;28;20435;-58
2022/09/06 08:06:23;;;;;;;9.27;5.23;;;22.20;99.90;;;;;;5073700;28;20486;-58
2022/09/06 08:08:52;;;;;;;7.50;4.97;;;22.50;99.90;;;;;;5073772;28;20456;-57
2022/09/06 08:11:20;;;;;;;5.67;4.17;;;22.40;99.90;;;;;;5073326;28;20529;-58
2022/09/06 08:13:50;;;;;;;5.80;4.73;;;22.60;99.90;;;;;;5073582;28;20475;-57
2022/09/06 08:16:18;;;;;;;5.03;4.63;;;22.60;99.90;;;;;;5073928;28;20467;-57
2022/09/06 08:18:49;;;;;;;6.10;4.73;;;22.70;99.90;;;;;;5073734;28;20480;-57
2022/09/06 08:21:17;;;;;;;4.57;4.27;;;22.90;99.90;;;;;;5073441;28;20500;-58
2022/09/06 08:23:46;;;;;;;6.83;5.73;;;23.00;99.90;;;;;;5073698;28;20448;-57
2022/09/06 08:26:15;;;;;;;5.17;4.57;;;23.10;99.90;;;;;;5073354;28;20480;-57
2022/09/06 08:28:42;;;;;;;5.47;5.00;;;23.20;99.90;;;;;;5073521;28;20451;-57
2022/09/06 08:31:11;;;;;;;5.30;4.90;;;23.30;99.90;;;;;;5073400;28;20461;-59
2022/09/06 08:33:39;;;;;;;7.43;4.70;;;23.50;99.90;;;;;;5073356;28;20897;-58
2022/09/06 08:36:07;;;;;;;6.03;4.37;;;23.50;99.90;;;;;;5072819;28;21012;-57
2022/09/06 08:38:34;;;;;;;8.93;5.00;;;23.60;99.90;;;;;;5072880;28;20498;-57
2022/09/06 08:41:10;;;;;;;9.43;4.70;;;23.80;99.90;;;;;;5073111;28;21049;-58
2022/09/06 08:43:47;;;;;;;5.80;5.27;;;24.00;99.90;;;;;;5073341;28;20539;-58
2022/09/06 08:46:17;;;;;;;5.93;4.70;;;24.10;99.90;;;;;;5073117;28;20550;-57
2022/09/06 08:48:44;;;;;;;8.70;5.27;;;24.30;99.90;;;;;;5072962;28;20844;-56
2022/09/06 08:51:56;;;;;;;6.87;5.10;;;24.90;99.90;;;;;;5073002;28;20464;-58
2022/09/06 08:54:31;;;;;;;7.87;5.20;;;25.80;99.90;;;;;;5072966;28;20921;-57
2022/09/06 08:57:06;;;;;;;6.53;4.20;;;26.50;99.90;;;;;;5073289;28;20428;-57
2022/09/06 08:59:38;;;;;;;6.90;4.40;;;26.30;99.90;;;;;;5072920;28;20424;-58
2022/09/06 09:02:12;;;;;;;7.70;5.10;;;26.60;99.90;;;;;;5073048;28;20519;-57
2022/09/06 09:04:44;;;;;;;5.53;4.07;;;27.10;99.90;;;;;;5073264;28;20460;-58
2022/09/06 09:07:34;;;;;;;6.17;3.80;;;28.10;99.90;;;;;;5072872;28;20881;-58
2022/09/06 09:10:05;;;;;;;4.63;4.17;;;28.60;99.90;;;;;;5070427;28;20518;-57
2022/09/06 09:12:35;;;;;;;14.00;4.93;;;28.60;99.90;;;;;;5073068;28;20963;-58
2022/09/06 09:15:09;;;;;;;6.10;3.90;;;28.40;99.90;;;;;;5073272;28;20895;-57
2022/09/06 09:17:37;;;;;;;4.73;4.27;;;28.40;99.90;;;;;;5073155;28;20433;-57
2022/09/06 09:20:05;;;;;;;4.27;3.87;;;28.20;99.90;;;;;;5072702;28;20459;-57
2022/09/06 09:22:32;;;;;;;4.63;4.23;;;28.60;99.90;;;;;;5072831;28;20496;-58
2022/09/06 09:25:01;;;;;;;9.77;4.77;;;28.90;99.90;;;;;;5072912;28;20457;-57
2022/09/06 09:27:29;;;;;;;4.40;4.00;;;28.80;99.90;;;;;;5072552;28;20840;-57
2022/09/06 09:30:01;;;;;;;6.90;4.00;;;28.10;99.90;;;;;;5072753;28;20459;-57
2022/09/06 09:32:34;;;;;;;7.03;4.50;;;27.80;99.90;;;;;;5072515;28;21002;-58
2022/09/06 09:35:30;;;;;;;4.90;4.43;;;27.90;99.90;;;;;;5073020;28;20759;-57
2022/09/06 09:38:03;;;;;;;5.43;3.77;;;27.90;99.90;;;;;;5072598;28;20810;-57
2022/09/06 09:40:34;;;;;;;6.90;4.73;;;27.90;99.90;;;;;;5072898;28;20524;-57
2022/09/06 09:43:16;;;;;;;4.73;3.83;;;28.20;99.90;;;;;;5072685;28;20840;-58
2022/09/06 09:45:44;;;;;;;7.00;4.73;;;29.10;99.90;;;;;;5072553;28;20555;-58
2022/09/06 09:48:27;;;;;;;5.43;4.13;;;29.60;99.90;;;;;;5073491;28;20502;-57
2022/09/06 09:50:55;;;;;;;4.73;3.97;;;30.30;99.90;;;;;;5076516;28;20464;-57
2022/09/06 09:53:24;;;;;;;11.00;4.20;;;30.50;99.60;;;;;;5076770;28;20456;-57
2022/09/06 09:55:57;;;;;;;5.83;5.33;;;30.40;98.90;;;;;;5076120;28;20440;-57
2022/09/06 09:58:32;;;;;;;6.40;3.93;;;30.60;98.10;;;;;;5076607;28;20428;-57
2022/09/06 10:01:18;;;;;;;4.53;3.80;;;30.40;98.80;;;;;;5076311;28;20464;-58
2022/09/06 10:03:46;;;;;;;9.83;3.93;;;31.00;97.90;;;;;;5076093;28;20428;-58
2022/09/06 10:06:15;;;;;;;6.17;4.43;;;30.80;97.40;;;;;;5075942;28;20567;-57
2022/09/06 10:08:43;;;;;;;4.40;3.80;;;31.10;96.90;;;;;;5075846;28;20995;-58
2022/09/06 10:11:14;;;;;;;4.13;3.60;;;31.70;95.10;;;;;;5075930;28;20525;-58
2022/09/06 10:13:42;;;;;;;4.03;3.73;;;32.30;96.50;;;;;;5076270;28;20760;-58
2022/09/06 10:16:09;;;;;;;5.53;3.53;;;32.60;93.70;;;;;;5076263;28;20494;-58
2022/09/06 10:18:39;;;;;;;5.67;4.30;;;32.10;93.10;;;;;;5076113;28;20444;-58
2022/09/06 10:21:11;;;;;;;5.97;4.70;;;32.20;93.90;;;;;;5075997;28;20474;-58
2022/09/06 10:23:56;;;;;;;5.60;3.50;;;32.70;93.70;;;;;;5075777;28;20864;-57
2022/09/06 10:26:30;;;;;;;7.73;3.60;;;32.40;91.80;;;;;;5075790;28;20939;-57
2022/09/06 10:29:04;;;;;;;8.10;3.60;;;31.50;92.70;;;;;;5075627;28;20425;-58
2022/09/06 10:31:48;;;;;;;7.73;3.90;;;31.90;92.30;;;;;;5075484;28;20468;-58
2022/09/06 10:34:52;;;;;;;8.00;3.40;;;32.20;93.40;;;;;;5075800;28;20436;-57
2022/09/06 10:37:39;;;;;;;4.40;3.33;;;31.20;92.70;;;;;;5075945;28;20507;-57
2022/09/06 10:40:08;;;;;;;5.60;3.33;;;30.60;91.90;;;;;;5075472;28;20528;-57
2022/09/06 10:42:42;;;;;;;4.13;3.53;;;30.10;92.70;;;;;;5075799;28;20880;-57
2022/09/06 10:45:28;;;;;;;5.00;3.23;;;29.90;93.80;;;;;;5075623;28;20507;-57
2022/09/06 10:48:00;;;;;;;6.53;3.23;;;29.60;93.40;;;;;;5075403;28;20476;-58
2022/09/06 10:50:38;;;;;;;6.70;3.70;;;29.50;94.20;;;;;;5075564;28;20460;-58
2022/09/06 10:53:13;;;;;;;7.43;3.67;;;29.40;94.70;;;;;;5075516;28;20433;-58
2022/09/06 10:55:42;;;;;;;6.57;4.00;;;29.30;96.10;;;;;;5075604;28;20447;-57
2022/09/06 10:58:12;;;;;;;4.57;4.13;;;29.30;95.20;;;;;;5075268;28;20535;-57
2022/09/06 11:00:46;;;;;;;10.33;4.07;;;28.90;95.30;;;;;;5074045;28;20448;-58
2022/09/06 11:03:22;;;;;;;7.23;4.00;;;28.70;95.60;;;;;;5075314;28;20451;-58
2022/09/06 11:05:52;;;;;;;7.03;3.80;;;28.60;95.40;;;;;;5075069;28;20819;-57
2022/09/06 11:08:28;;;;;;;6.93;4.30;;;28.80;95.90;;;;;;5075113;28;20447;-57
2022/09/06 11:10:56;;;;;;;7.87;3.63;;;28.80;95.50;;;;;;5074654;28;20464;-58
2022/09/06 11:13:27;;;;;;;5.40;3.53;;;28.70;95.40;;;;;;5074540;28;20435;-57
2022/09/06 11:15:59;;;;;;;4.60;4.20;;;28.70;96.00;;;;;;5074931;28;20452;-57
2022/09/06 11:18:32;;;;;;;7.43;3.83;;;28.60;96.40;;;;;;5074616;28;20432;-57
2022/09/06 11:21:31;;;;;;;4.03;3.60;;;28.50;96.70;;;;;;5074609;28;20479;-58
2022/09/06 11:24:11;;;;;;;7.70;5.13;;;28.60;96.60;;;;;;5074820;28;20507;-57
2022/09/06 11:26:44;;;;;;;4.87;4.33;;;29.20;96.50;;;;;;5074656;28;20519;-58
2022/09/06 11:29:18;;;;;;;4.70;3.90;;;30.20;95.70;;;;;;5074410;28;20432;-58
2022/09/06 11:31:54;;;;;;;6.97;4.43;;;30.60;95.00;;;;;;5073970;28;20491;-57
2022/09/06 11:34:24;;;;;;;10.30;4.70;;;30.80;94.80;;;;;;5074547;28;20455;-57
2022/09/06 11:36:54;;;;;;;9.40;3.80;;;31.40;94.10;;;;;;5074181;28;20450;-56
2022/09/06 11:39:30;;;;;;;5.30;3.90;;;31.50;92.80;;;;;;5074485;28;20454;-56
2022/09/06 11:41:57;;;;;;;9.10;3.53;;;31.30;92.40;;;;;;5074151;28;20529;-56
2022/09/06 11:45:10;;;;;;;4.30;3.90;;;31.50;92.60;;;;;;5074104;28;20988;-58
2022/09/06 11:47:39;;;;;;;6.50;3.70;;;31.80;91.80;;;;;;5073778;28;20484;-58
2022/09/06 11:50:47;;;;;;;4.63;3.47;;;31.70;92.00;;;;;;5073994;28;20435;-57
2022/09/06 11:53:18;;;;;;;6.13;4.30;;;32.20;92.00;;;;;;5073676;28;20501;-58
2022/09/06 11:55:48;;;;;;;6.40;3.63;;;31.50;91.50;;;;;;5073870;28;20478;-58
2022/09/06 11:58:30;;;;;;;7.83;4.20;;;31.00;91.70;;;;;;5074024;28;20429;-57
2022/09/06 12:01:35;;;;;;;4.80;3.43;;;30.40;92.80;;;;;;5073500;28;20551;-58
2022/09/06 12:04:06;;;;;;;8.07;5.07;;;30.10;92.30;;;;;;5073510;28;20535;-57
2022/09/06 12:06:36;;;;;;;8.47;4.07;;;29.90;93.20;;;;;;5073808;28;20471;-57
2022/09/06 12:09:28;;;;;;;4.83;4.00;;;30.30;92.40;;;;;;5074041;28;20452;-57
2022/09/06 12:11:56;;;;;;;4.13;3.60;;;30.80;92.10;;;;;;5073256;28;20568;-57
2022/09/06 12:14:32;;;;;;;10.70;4.60;;;31.20;91.40;;;;;;5073228;28;20926;-58
2022/09/06 12:17:29;;;;;;;5.10;3.13;;;32.30;90.90;;;;;;5073726;28;20428;-57
2022/09/06 12:20:05;;;;;;;4.80;3.43;;;32.60;88.00;;;;;;5073706;28;20515;-58
2022/09/06 12:22:53;;;;;;;8.00;4.03;;;32.40;85.90;;;;;;5073356;28;20476;-58
2022/09/06 12:25:56;;;;;;;8.10;4.00;;;31.90;90.00;;;;;;5073129;28;20896;-58
2022/09/06 12:28:42;;;;;;;4.40;4.00;;;31.20;90.30;;;;;;5073325;28;21029;-57
2022/09/06 12:31:31;;;;;;;4.67;4.27;;;30.10;92.30;;;;;;5073656;28;20455;-57
2022/09/06 12:33:58;;;;;;;3.97;3.57;;;29.70;93.80;;;;;;5073247;28;20428;-57
2022/09/06 12:36:29;;;;;;;6.97;4.93;;;29.40;93.50;;;;;;5073275;28;20440;-57
2022/09/06 12:38:58;;;;;;;8.47;4.70;;;29.00;95.00;;;;;;5073733;28;20428;-58
2022/09/06 12:41:29;;;;;;;7.73;3.93;;;28.80;96.30;;;;;;5072602;28;20472;-58
2022/09/06 12:43:59;;;;;;;11.53;5.20;;;28.60;95.80;;;;;;5073221;28;20446;-58
2022/09/06 12:46:29;;;;;;;5.40;4.13;;;28.50;96.60;;;;;;5073210;28;20889;-57
2022/09/06 12:49:05;;;;;;;4.87;4.30;;;28.20;97.90;;;;;;5073178;28;20482;-58
2022/09/06 12:51:33;;;;;;;6.27;4.17;;;28.00;98.80;;;;;;5073342;28;20830;-57
2022/09/06 12:54:02;;;;;;;7.40;4.63;;;27.70;99.90;;;;;;5073268;28;20448;-57
2022/09/06 12:56:33;;;;;;;6.47;4.70;;;27.50;99.90;;;;;;5072961;28;20933;-57
2022/09/06 12:59:15;;;;;;;5.00;4.50;;;27.20;99.90;;;;;;5073269;28;20432;-57
2022/09/06 13:01:46;;;;;;;9.80;4.60;;;26.90;99.90;;;;;;5073063;28;20461;-58
2022/09/06 13:04:21;;;;;;;8.93;5.10;;;26.70;99.90;;;;;;5073069;28;20512;-57
2022/09/06 13:06:49;;;;;;;6.67;5.60;;;26.50;99.90;;;;;;5073372;28;20459;-57
2022/09/06 13:09:20;;;;;;;8.03;5.10;;;26.30;99.90;;;;;;5073010;28;20447;-57